Skip Navigation LinksHome page > Weather > Current weather Skip Navigation Links

Current Weather

General Edward Lawrence Logan Intl, Boston

For information only: do not use for flight planning or navigation.
Latest weather
Observation time Sunday, September 20, 2020 8:54 AM EDT
Local time Sunday, September 20, 2020 9:05 AM EDT
Flight conditions Visual Meteorological Conditions
Winds
Wind direction North (360°)
Wind speed 10 mph
Visibility 10 mi.
Sky condition
Ceiling unlimited
Cloud layer few clouds 3,000 ft.
Cloud layer few clouds 15,000 ft.
Cloud layer scattered clouds 25,000 ft.
Temperature 51°F
Dewpoint 31°F
Altimeter 30.52 in.Hg
Derived measurements
Relative humidity 46%
Density altitude -1097 ft.
Sea-level pressure 30.52 in.Hg
Remarks
Automated weather observing station with precipitation discriminator.
METAR KBOS 201254Z 36009KT 10SM FEW030 FEW150 SCT250 11/M01 A3052 RMK AO2 SLP335 T01061006

Settings

Location code

InnerDrive.Weather 4.0.6770.0 Release CLR 4.0.30319.42000
Copyright ©2018 Inner Drive Technology. All rights reserved. Portions Copyright ©1986-2018 David Braverman.

Find weather

Site navigation


Skip Navigation Links

Place info

Page info

PayPal - The safer, easier way to pay online!

Return home.

Copyright ©2020 Inner Drive Technology. Purveyors of fine, hand-crafted computer software. Page printed 2020-09-20T13:05:21 UTC.